createdAt,value
2023-03-18T00:25:08.469Z,94760.00
2023-03-18T00:26:08.490Z,94760.00
2023-03-18T00:27:08.561Z,94760.00
2023-03-18T00:28:08.577Z,94759.00
2023-03-18T00:29:08.641Z,94760.00
2023-03-18T00:30:08.651Z,94760.00
2023-03-18T00:31:08.921Z,94762.00
2023-03-18T00:32:08.801Z,94764.00
2023-03-18T00:33:08.890Z,94766.00
2023-03-18T00:34:10.883Z,94768.00
2023-03-18T00:35:08.874Z,94770.00
2023-03-18T00:36:08.867Z,94770.00
2023-03-18T00:37:08.826Z,94770.00
2023-03-18T00:38:08.920Z,94770.00
2023-03-18T00:39:08.851Z,94772.00
2023-03-18T00:40:08.851Z,94774.00
2023-03-18T00:41:08.831Z,94774.00
2023-03-18T00:42:08.871Z,94776.00
2023-03-18T00:43:08.883Z,94778.00
2023-03-18T00:44:08.832Z,94780.00
2023-03-18T00:45:08.832Z,94778.00
2023-03-18T00:46:08.835Z,94780.00
2023-03-18T00:47:08.821Z,94782.00
2023-03-18T00:48:08.831Z,94782.00
2023-03-18T00:49:08.879Z,94782.00
2023-03-18T00:50:08.853Z,94782.00
2023-03-18T00:51:08.876Z,94782.00
2023-03-18T00:52:08.844Z,94784.00
2023-03-18T00:53:08.843Z,94784.00
2023-03-18T00:54:08.814Z,94782.00
2023-03-18T00:55:08.802Z,94784.00
2023-03-18T00:56:08.827Z,94782.00
2023-03-18T00:57:08.839Z,94784.00
2023-03-18T00:58:08.818Z,94784.00
2023-03-18T00:59:08.872Z,94784.00
2023-03-18T01:00:08.836Z,94782.00
2023-03-18T01:01:08.866Z,94780.00
2023-03-18T01:02:08.851Z,94782.00
2023-03-18T01:03:08.833Z,94782.00
2023-03-18T01:04:08.816Z,94784.00
2023-03-18T01:05:08.813Z,94782.00
2023-03-18T01:06:08.797Z,94784.00
2023-03-18T01:07:08.836Z,94786.00
2023-03-18T01:08:08.814Z,94786.00
2023-03-18T01:09:08.857Z,94786.00
2023-03-18T01:10:08.789Z,94786.00
2023-03-18T01:11:08.838Z,94788.00
2023-03-18T01:12:08.821Z,94794.00
2023-03-18T01:13:08.811Z,94792.00
2023-03-18T01:14:08.808Z,94792.00
2023-03-18T01:15:08.849Z,94790.00
2023-03-18T01:16:08.935Z,94792.00
2023-03-18T01:17:08.935Z,94790.00
2023-03-18T01:18:08.986Z,94792.00
2023-03-18T01:19:09.016Z,94794.00
2023-03-18T01:20:09.066Z,94794.00
2023-03-18T01:21:09.191Z,94790.00
2023-03-18T01:22:09.188Z,94796.00
2023-03-18T01:23:09.210Z,94794.00
2023-03-18T01:24:09.270Z,94794.00
2023-03-18T01:25:09.308Z,94794.00
2023-03-18T01:26:09.374Z,94794.00
2023-03-18T01:27:09.402Z,94788.00
2023-03-18T01:28:09.498Z,94788.00
2023-03-18T01:29:09.514Z,94786.00
2023-03-18T01:30:09.556Z,94786.00
2023-03-18T01:31:09.611Z,94786.00
2023-03-18T01:32:09.682Z,94788.00
2023-03-18T01:33:10.097Z,94790.00
2023-03-18T01:34:09.867Z,94788.00
2023-03-18T01:35:09.821Z,94788.00
2023-03-18T01:36:09.966Z,94784.00
2023-03-18T01:37:09.886Z,94788.00
2023-03-18T01:38:09.982Z,94788.00
2023-03-18T01:39:10.003Z,94788.00
2023-03-18T02:04:11.311Z,94804.00
2023-03-18T02:05:11.371Z,94800.00
2023-03-18T02:06:11.432Z,94802.00
2023-03-18T02:07:11.499Z,94806.00
2023-03-18T02:08:11.538Z,94807.00
2023-03-18T02:09:11.589Z,94807.00
2023-03-18T02:10:11.615Z,94809.00
2023-03-18T02:11:11.672Z,94809.00
2023-03-18T02:12:11.773Z,94807.00
2023-03-18T02:13:11.799Z,94807.00
2023-03-18T02:14:11.821Z,94807.00
2023-03-18T02:15:11.874Z,94806.00
2023-03-18T02:16:11.914Z,94809.00
2023-03-18T02:17:11.999Z,94806.00
2023-03-18T02:18:12.060Z,94807.00
2023-03-18T02:19:12.072Z,94811.00
2023-03-18T02:20:12.251Z,94809.00
2023-03-18T02:21:12.310Z,94811.00
2023-03-18T02:22:12.254Z,94813.00
2023-03-18T02:23:12.343Z,94809.00
2023-03-18T02:24:12.422Z,94811.00
2023-03-18T02:25:12.464Z,94811.00
2023-03-18T02:26:12.538Z,94809.00
2023-03-18T02:27:12.578Z,94809.00
2023-03-18T02:28:12.653Z,94813.00
2023-03-18T02:29:12.708Z,94813.00
2023-03-18T02:30:12.785Z,94817.00
2023-03-18T02:31:12.852Z,94811.00
2023-03-18T02:32:12.843Z,94817.00
2023-03-18T02:33:12.884Z,94817.00
2023-03-18T02:34:12.945Z,94817.00
2023-03-18T02:35:13.017Z,94817.00
2023-03-18T02:36:13.029Z,94817.00
2023-03-18T02:37:13.094Z,94823.00
2023-03-18T02:38:13.126Z,94817.00
2023-03-18T02:39:13.199Z,94815.00
2023-03-18T02:40:13.233Z,94815.00
2023-03-18T02:41:13.297Z,94819.00
2023-03-18T02:42:13.366Z,94821.00
2023-03-18T02:44:13.502Z,94821.00
2023-03-18T02:45:13.491Z,94819.00
2023-03-18T02:46:13.507Z,94819.00
2023-03-18T02:47:13.521Z,94819.00
2023-03-18T02:48:13.566Z,94821.00
2023-03-18T02:49:13.655Z,94821.00
2023-03-18T02:50:13.692Z,94823.00
2023-03-18T02:51:13.730Z,94823.00
2023-03-18T02:52:13.821Z,94827.00
2023-03-18T02:53:13.854Z,94829.00
2023-03-18T02:54:13.887Z,94829.00
2023-03-18T02:55:13.947Z,94831.00
2023-03-18T02:56:13.987Z,94831.00
2023-03-18T02:57:14.057Z,94831.00
2023-03-18T02:58:14.068Z,94829.00
2023-03-18T02:59:14.144Z,94831.00
2023-03-18T03:00:14.169Z,94831.00
2023-03-18T03:01:14.270Z,94829.00
2023-03-18T03:02:14.318Z,94835.00
2023-03-18T03:03:14.413Z,94835.00
2023-03-18T03:04:14.386Z,94837.00
2023-03-18T03:05:14.450Z,94839.00
2023-03-18T03:06:14.461Z,94839.00
2023-03-18T03:07:14.524Z,94841.00
2023-03-18T03:08:14.574Z,94837.00
2023-03-18T03:09:14.606Z,94841.00
2023-03-18T03:10:14.663Z,94845.00
2023-03-18T03:34:15.773Z,94860.00
2023-03-18T03:35:15.824Z,94862.00
2023-03-18T03:36:15.881Z,94860.00
2023-03-18T03:37:15.924Z,94860.00
2023-03-18T03:38:16.493Z,94860.00
2023-03-18T03:39:16.245Z,94860.00
2023-03-18T03:40:16.090Z,94862.00
2023-03-18T03:41:16.231Z,94862.00
2023-03-18T03:42:16.177Z,94864.00
2023-03-18T03:43:16.216Z,94864.00
2023-03-18T03:44:16.264Z,94866.00
2023-03-18T03:45:16.318Z,94866.00
2023-03-18T03:46:16.385Z,94868.00
2023-03-18T03:47:16.414Z,94872.00
2023-03-18T03:48:16.471Z,94868.00
2023-03-18T03:49:16.593Z,94870.00
2023-03-18T03:50:16.595Z,94872.00
2023-03-18T03:51:16.625Z,94874.00
2023-03-18T03:52:16.662Z,94876.00
2023-03-18T03:53:16.768Z,94874.00
2023-03-18T03:54:16.781Z,94874.00
2023-03-18T03:55:16.910Z,94874.00
2023-03-18T03:56:16.887Z,94878.00
2023-03-18T03:57:16.898Z,94880.00
2023-03-18T03:58:17.040Z,94880.00
2023-03-18T03:59:16.995Z,94880.00
2023-03-18T04:00:16.999Z,94880.00
2023-03-18T04:01:17.036Z,94882.00
2023-03-18T04:02:17.174Z,94882.00
2023-03-18T04:03:17.116Z,94882.00
2023-03-18T04:04:17.201Z,94882.00
2023-03-18T04:05:17.210Z,94882.00
2023-03-18T04:06:17.217Z,94880.00
2023-03-18T04:07:17.269Z,94880.00
2023-03-18T04:08:17.348Z,94882.00
2023-03-18T04:09:17.345Z,94884.00
2023-03-18T04:10:17.360Z,94882.00
2023-03-18T04:11:17.404Z,94882.00
2023-03-18T04:12:17.429Z,94880.00
2023-03-18T04:13:17.490Z,94878.00
2023-03-18T04:14:17.537Z,94880.00
2023-03-18T04:15:17.551Z,94878.00
2023-03-18T04:16:17.618Z,94878.00
2023-03-18T04:17:17.625Z,94880.00
2023-03-18T04:18:17.680Z,94880.00
2023-03-18T04:19:17.681Z,94880.00
2023-03-18T04:20:17.731Z,94878.00
2023-03-18T04:21:17.752Z,94878.00
2023-03-18T04:22:17.757Z,94880.00
2023-03-18T04:23:17.820Z,94878.00
2023-03-18T04:24:17.855Z,94884.00
2023-03-18T04:25:18.008Z,94884.00
2023-03-18T04:26:17.937Z,94878.00
2023-03-18T04:27:17.971Z,94880.00
2023-03-18T04:28:17.969Z,94884.00
2023-03-18T04:29:18.016Z,94884.00
2023-03-18T04:30:18.048Z,94880.00
2023-03-18T04:31:18.118Z,94880.00
2023-03-18T04:32:18.165Z,94878.00
2023-03-18T04:33:18.177Z,94878.00
2023-03-18T04:34:18.218Z,94878.00
2023-03-18T04:35:18.246Z,94876.00
2023-03-18T04:36:18.308Z,94878.00
2023-03-18T04:37:18.319Z,94878.00
2023-03-18T04:38:18.388Z,94876.00
2023-03-18T04:39:18.413Z,94878.00
2023-03-18T04:40:18.494Z,94876.00
2023-03-18T04:41:18.514Z,94878.00
2023-03-18T04:42:18.587Z,94876.00
2023-03-18T04:43:18.602Z,94878.00
2023-03-18T04:44:18.677Z,94880.00
2023-03-18T04:45:18.750Z,94876.00
2023-03-18T04:46:18.784Z,94874.00
2023-03-18T04:47:18.844Z,94876.00
2023-03-18T04:48:18.854Z,94876.00
2023-03-18T04:49:18.909Z,94876.00
2023-03-18T04:50:18.923Z,94878.00
2023-03-18T04:51:19.024Z,94874.00
2023-03-18T04:52:18.962Z,94876.00
2023-03-18T04:53:18.969Z,94880.00
2023-03-18T04:54:19.013Z,94876.00
2023-03-18T04:55:19.077Z,94876.00
2023-03-18T04:56:19.094Z,94876.00
2023-03-18T04:57:19.153Z,94876.00
2023-03-18T04:58:19.170Z,94876.00
2023-03-18T04:59:19.202Z,94878.00
2023-03-18T05:00:19.272Z,94876.00
2023-03-18T05:01:19.415Z,94878.00
2023-03-18T05:02:19.368Z,94878.00
2023-03-18T05:03:19.403Z,94880.00
2023-03-18T05:04:19.574Z,94880.00
2023-03-18T05:05:19.413Z,94880.00
2023-03-18T05:06:19.469Z,94882.00
2023-03-18T05:07:19.508Z,94880.00
2023-03-18T05:08:19.554Z,94882.00
2023-03-18T05:09:19.595Z,94882.00
2023-03-18T05:10:19.602Z,94884.00
2023-03-18T05:11:19.638Z,94884.00
2023-03-18T05:12:19.656Z,94884.00
2023-03-18T05:13:19.724Z,94884.00
2023-03-18T05:14:19.730Z,94880.00
2023-03-18T05:15:19.775Z,94880.00
2023-03-18T05:16:19.881Z,94882.00
2023-03-18T05:17:19.893Z,94882.00
2023-03-18T05:18:19.904Z,94884.00
2023-03-18T05:19:19.961Z,94884.00
2023-03-18T05:20:20.027Z,94892.00
2023-03-18T05:21:20.083Z,94892.00
2023-03-18T05:22:20.127Z,94882.00
2023-03-18T05:23:20.175Z,94884.00
2023-03-18T05:24:20.245Z,94880.00
2023-03-18T05:25:20.320Z,94880.00
2023-03-18T05:26:20.330Z,94878.00
2023-03-18T05:27:20.495Z,94874.00
2023-03-18T05:28:20.478Z,94878.00
2023-03-18T05:29:20.484Z,94876.00
2023-03-18T05:30:20.601Z,94878.00
2023-03-18T05:31:20.638Z,94880.00
2023-03-18T05:32:20.666Z,94880.00
2023-03-18T05:33:23.129Z,94880.00
2023-03-18T05:34:20.861Z,94882.00
2023-03-18T05:35:20.874Z,94882.00
2023-03-18T05:36:20.965Z,94882.00
2023-03-18T05:37:20.995Z,94880.00
2023-03-18T05:38:21.185Z,94880.00
2023-03-18T05:39:21.107Z,94884.00
2023-03-18T05:40:21.173Z,94882.00
2023-03-18T05:41:21.208Z,94882.00
2023-03-18T05:42:21.270Z,94884.00
2023-03-18T05:43:21.292Z,94884.00
2023-03-18T05:44:21.312Z,94882.00
2023-03-18T05:45:21.361Z,94884.00
2023-03-18T05:46:21.472Z,94896.00
2023-03-18T05:47:21.489Z,94894.00
2023-03-18T05:48:21.504Z,94894.00
2023-03-18T05:49:21.572Z,94894.00
2023-03-18T05:50:21.574Z,94896.00
2023-03-18T05:51:21.646Z,94898.00
2023-03-18T05:52:21.676Z,94894.00
2023-03-18T05:53:21.714Z,94892.00
2023-03-18T05:54:21.786Z,94894.00
2023-03-18T05:55:21.833Z,94894.00
2023-03-18T05:56:21.861Z,94894.00
2023-03-18T05:57:21.909Z,94894.00
2023-03-18T05:58:21.966Z,94894.00
2023-03-18T05:59:22.005Z,94894.00
2023-03-18T06:00:22.053Z,94896.00
2023-03-18T06:01:22.114Z,94896.00
2023-03-18T06:02:22.217Z,94896.00
2023-03-18T06:03:22.279Z,94898.00
2023-03-18T06:04:22.217Z,94898.00
2023-03-18T06:05:22.218Z,94896.00
2023-03-18T06:06:22.260Z,94900.00
2023-03-18T06:07:22.324Z,94898.00
2023-03-18T06:08:22.386Z,94898.00
2023-03-18T06:09:22.442Z,94898.00
2023-03-18T06:10:22.523Z,94896.00
2023-03-18T06:11:22.531Z,94896.00
2023-03-18T06:12:22.583Z,94898.00
2023-03-18T06:13:22.631Z,94898.00
2023-03-18T06:14:22.600Z,94898.00
2023-03-18T06:15:22.630Z,94902.00
2023-03-18T06:16:22.710Z,94902.00
2023-03-18T06:17:22.746Z,94902.00
2023-03-18T06:18:22.816Z,94903.00
2023-03-18T06:19:22.816Z,94903.00
2023-03-18T06:20:22.836Z,94903.00
2023-03-18T06:21:22.897Z,94905.00
2023-03-18T06:22:22.890Z,94907.00
2023-03-18T06:23:22.958Z,94907.00
2023-03-18T06:24:22.998Z,94911.00
2023-03-18T06:25:23.004Z,94909.00
2023-03-18T06:26:22.995Z,94909.00
2023-03-18T06:27:23.020Z,94911.00
2023-03-18T06:28:23.053Z,94913.00
2023-03-18T06:29:23.102Z,94911.00
2023-03-18T06:30:23.151Z,94911.00
2023-03-18T06:31:23.216Z,94907.00
2023-03-18T06:32:23.290Z,94907.00
2023-03-18T06:33:23.243Z,94911.00
2023-03-18T06:34:23.296Z,94911.00
2023-03-18T06:35:23.312Z,94911.00
2023-03-18T06:36:23.309Z,94915.00
2023-03-18T06:37:23.354Z,94915.00
2023-03-18T06:38:23.391Z,94915.00
2023-03-18T06:39:23.426Z,94913.00
2023-03-18T06:40:23.452Z,94915.00
2023-03-18T06:41:23.501Z,94915.00
2023-03-18T06:42:23.506Z,94915.00
2023-03-18T06:43:23.549Z,94917.00
2023-03-18T06:44:23.567Z,94917.00
2023-03-18T06:45:23.617Z,94917.00
2023-03-18T06:46:23.643Z,94919.00
2023-03-18T06:47:23.667Z,94915.00
2023-03-18T06:48:23.692Z,94913.00
2023-03-18T06:49:23.734Z,94919.00
2023-03-18T06:50:23.783Z,94919.00
2023-03-18T06:51:23.828Z,94919.00
2023-03-18T06:52:23.839Z,94921.00
2023-03-18T06:53:23.876Z,94923.00
2023-03-18T06:54:23.875Z,94925.00
2023-03-18T06:55:23.929Z,94921.00
2023-03-18T06:56:23.952Z,94925.00
2023-03-18T06:57:24.016Z,94925.00
2023-03-18T06:58:24.079Z,94925.00
2023-03-18T06:59:24.136Z,94925.00
2023-03-18T07:00:24.201Z,94925.00
2023-03-18T07:01:24.225Z,94923.00
2023-03-18T07:02:24.556Z,94927.00
2023-03-18T07:03:24.325Z,94923.00
2023-03-18T07:04:24.569Z,94923.00
2023-03-18T07:05:24.417Z,94923.00
2023-03-18T07:06:24.452Z,94923.00
2023-03-18T07:07:24.509Z,94921.00
2023-03-18T07:08:24.568Z,94919.00
2023-03-18T07:09:24.583Z,94921.00
2023-03-18T07:10:24.635Z,94921.00
2023-03-18T07:11:24.656Z,94925.00
2023-03-18T07:12:24.729Z,94923.00
2023-03-18T07:13:24.791Z,94925.00
2023-03-18T07:14:24.802Z,94923.00
2023-03-18T07:15:24.876Z,94923.00
2023-03-18T07:16:24.962Z,94927.00
2023-03-18T07:17:24.968Z,94923.00
2023-03-18T07:18:24.997Z,94929.00
2023-03-18T07:19:25.044Z,94927.00
2023-03-18T07:21:25.157Z,94927.00
2023-03-18T07:22:25.187Z,94927.00
2023-03-18T07:23:25.252Z,94927.00
2023-03-18T07:24:25.265Z,94931.00
2023-03-18T07:25:25.320Z,94929.00
2023-03-18T07:26:25.391Z,94931.00
2023-03-18T07:27:25.456Z,94929.00
2023-03-18T07:28:25.502Z,94929.00
2023-03-18T07:29:25.572Z,94927.00
2023-03-18T07:30:25.599Z,94929.00
2023-03-18T07:31:25.692Z,94929.00
2023-03-18T07:32:25.679Z,94929.00
2023-03-18T07:33:25.748Z,94929.00
2023-03-18T07:34:25.818Z,94929.00
2023-03-18T07:35:25.862Z,94929.00
2023-03-18T07:36:25.883Z,94927.00
2023-03-18T07:37:25.961Z,94927.00
2023-03-18T07:38:26.034Z,94929.00
2023-03-18T07:39:26.068Z,94925.00
2023-03-18T07:40:26.126Z,94927.00
2023-03-18T07:41:26.177Z,94925.00
2023-03-18T07:42:26.197Z,94925.00
2023-03-18T07:43:26.248Z,94925.00
2023-03-18T07:44:26.377Z,94923.00
2023-03-18T07:45:26.350Z,94921.00
2023-03-18T07:46:26.466Z,94925.00
2023-03-18T07:47:26.433Z,94925.00
2023-03-18T07:48:26.459Z,94923.00
2023-03-18T07:49:26.514Z,94923.00
2023-03-18T07:50:26.558Z,94923.00
2023-03-18T07:51:26.591Z,94923.00
2023-03-18T07:52:26.620Z,94925.00
2023-03-18T07:53:26.684Z,94923.00
2023-03-18T07:54:26.693Z,94917.00
2023-03-18T07:55:26.727Z,94919.00
2023-03-18T07:56:26.768Z,94917.00
2023-03-18T07:57:26.814Z,94917.00
2023-03-18T07:58:26.862Z,94915.00
2023-03-18T07:59:26.873Z,94917.00
2023-03-18T08:00:27.128Z,94915.00
2023-03-18T08:01:26.958Z,94915.00
2023-03-18T08:02:26.944Z,94917.00
2023-03-18T08:03:27.001Z,94917.00
2023-03-18T08:04:27.165Z,94911.00
2023-03-18T08:05:27.040Z,94913.00
2023-03-18T08:06:27.080Z,94911.00
2023-03-18T08:07:27.114Z,94911.00
2023-03-18T08:08:27.171Z,94909.00
2023-03-18T08:09:27.211Z,94915.00
2023-03-18T08:10:27.233Z,94909.00
2023-03-18T08:11:27.263Z,94913.00
2023-03-18T08:12:33.340Z,94913.00
2023-03-18T08:13:28.340Z,94911.00
2023-03-18T08:14:27.329Z,94909.00
2023-03-18T08:15:27.301Z,94909.00
2023-03-18T08:16:27.330Z,94907.00
2023-03-18T08:17:27.324Z,94909.00
2023-03-18T08:18:27.289Z,94903.00
2023-03-18T08:19:27.458Z,94905.00
2023-03-18T08:20:27.390Z,94907.00
2023-03-18T08:21:27.285Z,94903.00
2023-03-18T08:22:27.288Z,94903.00
2023-03-18T08:23:27.259Z,94905.00
2023-03-18T08:24:27.255Z,94905.00
2023-03-18T08:25:27.256Z,94902.00
2023-03-18T08:26:27.225Z,94903.00
2023-03-18T08:27:27.266Z,94903.00
2023-03-18T08:28:27.367Z,94902.00
2023-03-18T08:29:27.342Z,94902.00
2023-03-18T08:30:27.418Z,94905.00
2023-03-18T08:31:27.471Z,94900.00
2023-03-18T08:32:27.469Z,94900.00
2023-03-18T08:33:27.544Z,94902.00
2023-03-18T08:34:27.550Z,94900.00
2023-03-18T08:35:27.598Z,94900.00
2023-03-18T08:36:27.617Z,94898.00
2023-03-18T08:37:27.665Z,94896.00
2023-03-18T08:38:27.682Z,94898.00
2023-03-18T08:39:27.720Z,94898.00
2023-03-18T08:40:27.752Z,94896.00
2023-03-18T08:41:27.779Z,94894.00
2023-03-18T08:42:27.798Z,94898.00
2023-03-18T08:43:27.847Z,94896.00
2023-03-18T08:44:27.836Z,94892.00
2023-03-18T08:45:27.872Z,94892.00
2023-03-18T08:46:27.925Z,94892.00
2023-03-18T08:47:27.969Z,94892.00
2023-03-18T08:48:27.977Z,94884.00
2023-03-18T08:49:28.007Z,94882.00
2023-03-18T08:50:28.050Z,94892.00
2023-03-18T08:51:28.045Z,94882.00
2023-03-18T08:52:28.075Z,94880.00
2023-03-18T08:53:28.068Z,94878.00
2023-03-18T08:54:28.114Z,94876.00
2023-03-18T08:55:28.155Z,94878.00
2023-03-18T08:56:28.194Z,94878.00
2023-03-18T08:57:28.202Z,94876.00
2023-03-18T08:58:28.198Z,94872.00
2023-03-18T08:59:28.241Z,94868.00
2023-03-18T09:00:28.273Z,94870.00
2023-03-18T09:01:29.180Z,94866.00
2023-03-18T09:02:28.342Z,94862.00
2023-03-18T09:03:28.425Z,94868.00
2023-03-18T09:04:28.368Z,94864.00
2023-03-18T09:05:28.439Z,94862.00
2023-03-18T09:06:28.429Z,94856.00
2023-03-18T09:07:28.450Z,94858.00
2023-03-18T09:08:28.519Z,94856.00
2023-03-18T09:09:41.060Z,94851.00
2023-03-18T09:10:29.531Z,94856.00
2023-03-18T09:11:28.469Z,94853.00
2023-03-18T09:12:28.511Z,94853.00
2023-03-18T09:13:29.150Z,94853.00
2023-03-18T09:14:28.492Z,94854.00
2023-03-18T09:15:28.463Z,94854.00
2023-03-18T09:16:28.504Z,94854.00
2023-03-18T09:17:46.937Z,94851.00
2023-03-18T09:18:29.415Z,94849.00
2023-03-18T09:19:28.433Z,94847.00
2023-03-18T09:20:28.442Z,94849.00
2023-03-18T09:21:28.374Z,94847.00
2023-03-18T09:22:28.397Z,94845.00
2023-03-18T09:23:28.368Z,94849.00
2023-03-18T09:24:28.387Z,94845.00
2023-03-18T09:25:28.340Z,94845.00
2023-03-18T09:26:28.388Z,94847.00
2023-03-18T09:27:28.368Z,94849.00
2023-03-18T09:28:28.344Z,94849.00
2023-03-18T09:29:28.371Z,94849.00
2023-03-18T09:30:28.391Z,94851.00
2023-03-18T09:31:28.314Z,94849.00
2023-03-18T09:32:28.452Z,94849.00
2023-03-18T09:33:28.309Z,94851.00
2023-03-18T09:34:28.315Z,94851.00
2023-03-18T09:35:28.291Z,94851.00
2023-03-18T09:36:28.262Z,94847.00
2023-03-18T09:37:28.233Z,94843.00
2023-03-18T09:38:28.283Z,94845.00
2023-03-18T09:39:28.273Z,94843.00
2023-03-18T09:40:28.284Z,94839.00
2023-03-18T09:41:28.282Z,94833.00
2023-03-18T09:42:28.298Z,94833.00
2023-03-18T09:43:28.339Z,94831.00
2023-03-18T09:44:28.367Z,94827.00
2023-03-18T09:45:28.394Z,94825.00
2023-03-18T09:46:28.504Z,94825.00
2023-03-18T09:47:28.436Z,94819.00
2023-03-18T09:48:28.700Z,94821.00
2023-03-18T09:49:28.451Z,94821.00
2023-03-18T09:50:28.447Z,94817.00
2023-03-18T09:51:28.485Z,94815.00
2023-03-18T09:52:28.534Z,94815.00
2023-03-18T09:53:28.529Z,94819.00
2023-03-18T09:54:28.579Z,94815.00
2023-03-18T09:55:28.637Z,94817.00
2023-03-18T09:56:28.633Z,94817.00
2023-03-18T09:57:28.963Z,94821.00
2023-03-18T09:58:28.666Z,94815.00
2023-03-18T09:59:28.709Z,94817.00
2023-03-18T10:00:28.724Z,94815.00
2023-03-18T10:01:28.882Z,94815.00
2023-03-18T10:02:28.755Z,94811.00
2023-03-18T10:03:28.806Z,94813.00
2023-03-18T10:04:28.839Z,94813.00
2023-03-18T10:05:28.846Z,94811.00
2023-03-18T10:06:28.862Z,94811.00
2023-03-18T10:07:28.890Z,94809.00
2023-03-18T10:08:28.881Z,94807.00
2023-03-18T10:09:28.927Z,94807.00
2023-03-18T10:10:28.943Z,94806.00
2023-03-18T10:11:28.933Z,94807.00
2023-03-18T10:12:28.960Z,94806.00
2023-03-18T10:13:28.985Z,94806.00
2023-03-18T10:14:29.018Z,94806.00
2023-03-18T10:15:29.041Z,94804.00
2023-03-18T10:16:29.140Z,94802.00
2023-03-18T10:17:29.047Z,94802.00
2023-03-18T10:18:29.060Z,94800.00
2023-03-18T10:19:29.103Z,94798.00
2023-03-18T10:20:29.090Z,94798.00
2023-03-18T10:21:29.110Z,94798.00
2023-03-18T10:22:29.101Z,94794.00
2023-03-18T10:23:29.105Z,94794.00
2023-03-18T10:24:29.148Z,94790.00
2023-03-18T10:25:29.156Z,94790.00
2023-03-18T10:26:29.163Z,94792.00
2023-03-18T10:27:29.174Z,94788.00
2023-03-18T10:28:29.202Z,94790.00
2023-03-18T10:29:29.194Z,94790.00
2023-03-18T10:30:29.233Z,94786.00
2023-03-18T10:31:29.304Z,94786.00
2023-03-18T10:32:42.602Z,94784.00
2023-03-18T10:33:30.278Z,94780.00
2023-03-18T10:34:29.238Z,94782.00
2023-03-18T10:35:29.241Z,94774.00
2023-03-18T10:36:29.238Z,94776.00
2023-03-18T10:37:29.202Z,94772.00
2023-03-18T10:38:29.189Z,94772.00
2023-03-18T10:39:29.218Z,94770.00
2023-03-18T10:40:29.202Z,94768.00
2023-03-18T10:41:29.167Z,94768.00
2023-03-18T10:42:29.181Z,94768.00
2023-03-18T10:43:29.151Z,94766.00
2023-03-18T10:44:29.183Z,94762.00
2023-03-18T10:45:29.135Z,94770.00
2023-03-18T10:46:29.257Z,94762.00
2023-03-18T10:47:29.179Z,94760.00
2023-03-18T10:48:29.105Z,94762.00
2023-03-18T10:49:29.068Z,94760.00
2023-03-18T10:50:29.082Z,94760.00
2023-03-18T10:51:29.084Z,94760.00
2023-03-18T10:52:29.080Z,94759.00
2023-03-18T10:53:29.173Z,94757.00
2023-03-18T10:54:29.073Z,94755.00
2023-03-18T10:55:29.076Z,94753.00
2023-03-18T10:56:29.126Z,94749.00
2023-03-18T10:57:29.118Z,94747.00
2023-03-18T10:58:29.109Z,94747.00
2023-03-18T10:59:29.192Z,94745.00
2023-03-18T11:00:29.173Z,94741.00
2023-03-18T11:01:29.284Z,94739.00
2023-03-18T11:02:29.267Z,94737.00
2023-03-18T11:03:29.256Z,94735.00
2023-03-18T11:04:29.268Z,94733.00
2023-03-18T11:05:29.278Z,94733.00
2023-03-18T11:06:31.398Z,94731.00
2023-03-18T11:07:29.277Z,94727.00
2023-03-18T11:08:29.325Z,94729.00
2023-03-18T11:09:29.320Z,94727.00
2023-03-18T11:10:29.347Z,94725.00
2023-03-18T11:11:29.392Z,94723.00
2023-03-18T11:12:29.391Z,94719.00
2023-03-18T11:13:29.383Z,94717.00
2023-03-18T11:14:29.417Z,94717.00
2023-03-18T11:15:29.443Z,94715.00
2023-03-18T11:16:29.513Z,94711.00
2023-03-18T11:17:29.518Z,94709.00
2023-03-18T11:18:29.498Z,94705.00
2023-03-18T11:19:29.566Z,94702.00
2023-03-18T11:20:29.604Z,94702.00
2023-03-18T11:21:29.650Z,94702.00
2023-03-18T11:22:29.675Z,94696.00
2023-03-18T11:23:29.720Z,94694.00
2023-03-18T11:24:29.703Z,94692.00
2023-03-18T11:25:29.731Z,94690.00
2023-03-18T11:26:29.766Z,94690.00
2023-03-18T11:27:29.827Z,94686.00
2023-03-18T11:28:29.809Z,94684.00
2023-03-18T11:29:29.824Z,94684.00
2023-03-18T11:30:41.130Z,94682.00
2023-03-18T11:31:30.885Z,94680.00
2023-03-18T11:32:29.938Z,94674.00
2023-03-18T11:33:29.846Z,94674.00
2023-03-18T11:34:29.810Z,94670.00
2023-03-18T11:35:29.795Z,94670.00
2023-03-18T11:36:29.762Z,94668.00
2023-03-18T11:37:29.753Z,94666.00
2023-03-18T11:38:29.773Z,94666.00
2023-03-18T11:39:29.734Z,94664.00
2023-03-18T11:40:29.782Z,94660.00
2023-03-18T11:41:29.837Z,94660.00
2023-03-18T11:42:29.829Z,94657.00
2023-03-18T11:43:29.808Z,94658.00
2023-03-18T11:44:29.879Z,94655.00
2023-03-18T11:45:29.932Z,94647.00
2023-03-18T11:46:29.967Z,94647.00
2023-03-18T11:47:29.989Z,94643.00
2023-03-18T11:48:30.031Z,94643.00
2023-03-18T11:49:30.077Z,94639.00
2023-03-18T11:50:30.094Z,94627.00
2023-03-18T11:51:30.102Z,94623.00
2023-03-18T11:52:30.155Z,94625.00
2023-03-18T11:53:30.215Z,94619.00
2023-03-18T11:54:30.253Z,94615.00
2023-03-18T11:55:30.559Z,94610.00
2023-03-18T11:56:30.337Z,94606.00
2023-03-18T11:57:30.376Z,94610.00
2023-03-18T11:58:30.410Z,94608.00
2023-03-18T11:59:30.466Z,94604.00
2023-03-18T12:00:30.504Z,94598.00
2023-03-18T12:01:32.766Z,94604.00
2023-03-18T12:02:30.700Z,94600.00
2023-03-18T12:03:30.597Z,94604.00
2023-03-18T12:04:30.654Z,94598.00
2023-03-18T12:05:30.848Z,94598.00
2023-03-18T12:06:30.704Z,94598.00
2023-03-18T12:07:30.765Z,94594.00
2023-03-18T12:08:30.792Z,94590.00
2023-03-18T12:09:30.795Z,94590.00
2023-03-18T12:10:31.093Z,94588.00
2023-03-18T12:11:30.888Z,94586.00
2023-03-18T12:12:30.934Z,94590.00
2023-03-18T12:13:30.965Z,94588.00
2023-03-18T12:14:31.110Z,94586.00
2023-03-18T12:15:31.312Z,94584.00
2023-03-18T12:16:31.112Z,94582.00
2023-03-18T12:17:31.135Z,94582.00
2023-03-18T12:18:31.170Z,94584.00
2023-03-18T12:19:31.241Z,94582.00
2023-03-18T12:20:31.735Z,94582.00
2023-03-18T12:21:31.309Z,94582.00
2023-03-18T12:22:31.353Z,94582.00
2023-03-18T12:23:31.411Z,94580.00
2023-03-18T12:24:31.422Z,94586.00
2023-03-18T12:25:31.443Z,94580.00
2023-03-18T12:26:31.520Z,94578.00
2023-03-18T12:27:31.503Z,94580.00
2023-03-18T12:28:31.592Z,94578.00
2023-03-18T12:29:31.576Z,94576.00
2023-03-18T12:30:31.900Z,94574.00
2023-03-18T12:31:31.754Z,94574.00
2023-03-18T12:32:31.783Z,94572.00
2023-03-18T12:33:31.766Z,94570.00
2023-03-18T12:34:31.782Z,94568.00
2023-03-18T12:35:31.881Z,94568.00
2023-03-18T12:36:31.894Z,94568.00
2023-03-18T12:37:31.921Z,94568.00
2023-03-18T12:38:31.975Z,94564.00
2023-03-18T12:39:31.977Z,94564.00
2023-03-18T12:40:33.007Z,94564.00
2023-03-18T12:41:32.036Z,94562.00
2023-03-18T12:42:32.110Z,94564.00
2023-03-18T12:43:32.152Z,94562.00
2023-03-18T12:44:32.156Z,94562.00
2023-03-18T12:45:32.492Z,94564.00
2023-03-18T12:46:33.791Z,94564.00
2023-03-18T12:47:32.255Z,94564.00
2023-03-18T12:48:42.775Z,94562.00
2023-03-18T12:49:33.311Z,94562.00
2023-03-18T12:50:32.328Z,94557.00
2023-03-18T12:51:32.301Z,94557.00
2023-03-18T12:52:32.253Z,94555.00
2023-03-18T12:53:32.255Z,94558.00
2023-03-18T12:54:32.218Z,94553.00
2023-03-18T12:55:32.598Z,94555.00
2023-03-18T12:56:32.206Z,94555.00
2023-03-18T12:57:32.174Z,94553.00
2023-03-18T12:58:32.193Z,94553.00